createdAt,value
2018-12-23T00:02:51.134Z,8.84
2018-12-23T00:13:11.796Z,8.85
2018-12-23T00:23:32.231Z,8.79
2018-12-23T00:33:52.997Z,8.80
2018-12-23T00:44:15.782Z,8.75
2018-12-23T00:54:37.803Z,8.58
2018-12-23T01:05:28.826Z,8.79
2018-12-23T01:10:31.774Z,8.71
2018-12-23T01:15:37.014Z,8.64
2018-12-23T01:20:42.027Z,8.69
2018-12-23T01:25:47.212Z,8.75
2018-12-23T01:30:52.194Z,8.70
2018-12-23T01:35:57.180Z,8.71
2018-12-23T01:41:04.400Z,8.50
2018-12-23T01:46:09.127Z,8.55
2018-12-23T01:51:14.178Z,8.65
2018-12-23T01:56:19.154Z,8.44
2018-12-23T02:01:24.148Z,8.35
2018-12-23T02:06:29.250Z,8.45
2018-12-23T02:11:34.358Z,8.45
2018-12-23T02:16:39.393Z,8.37
2018-12-23T02:21:44.662Z,8.41
2018-12-23T02:26:49.714Z,8.50
2018-12-23T02:31:54.773Z,8.41
2018-12-23T02:36:59.925Z,8.48
2018-12-23T02:42:04.954Z,8.36
2018-12-23T02:47:10.080Z,8.37
2018-12-23T02:52:15.284Z,8.17
2018-12-23T02:57:20.343Z,8.22
2018-12-23T03:02:25.334Z,8.11
2018-12-23T03:07:30.457Z,8.00
2018-12-23T03:12:35.592Z,8.05
2018-12-23T03:17:40.550Z,7.99
2018-12-23T03:22:45.529Z,7.91
2018-12-23T03:27:50.656Z,8.02
2018-12-23T03:32:55.694Z,7.81
2018-12-23T03:38:00.739Z,7.73
2018-12-23T03:43:05.720Z,7.80
2018-12-23T03:48:10.662Z,7.69
2018-12-23T03:53:15.640Z,7.79
2018-12-23T03:58:20.642Z,7.79
2018-12-23T04:03:25.727Z,7.83
2018-12-23T04:08:30.792Z,7.68
2018-12-23T04:13:35.825Z,7.58
2018-12-23T04:18:40.799Z,7.54
2018-12-23T04:23:46.134Z,7.47
2018-12-23T04:28:51.178Z,7.54
2018-12-23T04:33:56.167Z,7.49
2018-12-23T04:39:01.294Z,7.39
2018-12-23T04:44:06.273Z,7.51
2018-12-23T04:49:11.334Z,7.60
2018-12-23T04:54:16.417Z,7.65
2018-12-23T04:59:21.516Z,7.46
2018-12-23T05:04:26.695Z,7.56
2018-12-23T05:09:31.745Z,7.52
2018-12-23T05:14:36.990Z,7.63
2018-12-23T05:19:42.072Z,7.64
2018-12-23T05:24:47.901Z,7.71
2018-12-23T05:29:52.925Z,7.75
2018-12-23T05:34:58.125Z,7.73
2018-12-23T05:40:03.348Z,7.69
2018-12-23T05:45:08.736Z,7.74
2018-12-23T05:50:13.699Z,7.73
2018-12-23T05:55:25.554Z,7.84
2018-12-23T06:00:30.691Z,7.86
2018-12-23T06:05:35.712Z,7.84
2018-12-23T06:10:40.683Z,7.82
2018-12-23T06:15:45.721Z,7.92
2018-12-23T06:20:50.737Z,7.87
2018-12-23T06:25:55.805Z,7.92
2018-12-23T06:31:01.266Z,8.05
2018-12-23T06:36:06.227Z,8.00
2018-12-23T06:41:11.480Z,7.92
2018-12-23T06:46:16.582Z,8.06
2018-12-23T06:51:21.681Z,8.06
2018-12-23T06:56:26.737Z,8.02
2018-12-23T07:01:31.731Z,8.11
2018-12-23T07:06:36.846Z,8.05
2018-12-23T07:11:41.926Z,7.90
2018-12-23T07:16:46.908Z,8.01
2018-12-23T07:21:51.880Z,8.08
2018-12-23T07:26:56.949Z,7.96
2018-12-23T07:32:01.958Z,8.02
2018-12-23T07:37:07.056Z,8.18
2018-12-23T07:42:12.306Z,8.12
2018-12-23T07:47:17.420Z,8.09
2018-12-23T07:52:22.511Z,8.24
2018-12-23T07:57:27.667Z,8.28
2018-12-23T08:02:32.614Z,8.29
2018-12-23T08:07:37.654Z,8.31
2018-12-23T08:12:42.647Z,8.49
2018-12-23T08:17:47.654Z,8.78
2018-12-23T08:22:52.637Z,8.83
2018-12-23T08:27:57.688Z,8.76
2018-12-23T08:33:02.815Z,8.67
2018-12-23T08:38:07.886Z,8.75
2018-12-23T08:43:12.897Z,8.85
2018-12-23T08:48:18.065Z,8.81
2018-12-23T08:53:23.078Z,8.74
2018-12-23T08:58:28.207Z,8.69
2018-12-23T09:03:33.517Z,8.71
2018-12-23T09:08:38.627Z,8.56
2018-12-23T09:13:43.769Z,8.66
2018-12-23T09:18:48.772Z,8.58
2018-12-23T09:23:53.947Z,8.67
2018-12-23T09:28:58.932Z,8.85
2018-12-23T09:34:03.955Z,8.93
2018-12-23T09:39:09.245Z,8.95
2018-12-23T09:44:14.344Z,8.90
2018-12-23T09:49:19.446Z,9.08
2018-12-23T09:54:24.507Z,9.06
2018-12-23T09:59:29.633Z,9.15
2018-12-23T10:04:36.352Z,9.07
2018-12-23T10:09:41.537Z,9.09
2018-12-23T10:14:46.806Z,9.17
2018-12-23T10:19:51.967Z,9.14
2018-12-23T10:24:57.061Z,9.17
2018-12-23T10:30:02.096Z,9.17
2018-12-23T10:35:09.092Z,9.25
2018-12-23T10:40:15.114Z,9.25
2018-12-23T10:45:20.506Z,9.26
2018-12-23T10:50:26.299Z,9.17
2018-12-23T10:55:31.381Z,9.26
2018-12-23T11:00:36.404Z,9.20
2018-12-23T11:05:41.517Z,9.18
2018-12-23T11:10:46.555Z,9.28
2018-12-23T11:15:51.805Z,9.17
2018-12-23T11:20:56.967Z,9.20
2018-12-23T11:26:02.021Z,9.21
2018-12-23T11:31:07.008Z,9.16
2018-12-23T11:36:12.119Z,9.13
2018-12-23T11:41:17.283Z,9.15
2018-12-23T11:46:22.240Z,9.23
2018-12-23T11:51:27.253Z,9.29
2018-12-23T11:56:32.277Z,9.32
2018-12-23T12:01:37.277Z,9.32
2018-12-23T12:06:42.319Z,9.31
2018-12-23T12:11:47.315Z,9.34
2018-12-23T12:16:52.313Z,9.37
2018-12-23T12:21:57.311Z,9.40
2018-12-23T12:27:02.340Z,9.41
2018-12-23T12:32:07.292Z,9.41
2018-12-23T12:37:12.306Z,9.44
2018-12-23T12:42:17.401Z,9.42
2018-12-23T12:47:22.613Z,9.42
2018-12-23T12:52:27.701Z,9.41
2018-12-23T12:57:32.733Z,9.42
2018-12-23T13:02:37.652Z,9.40
2018-12-23T13:07:42.641Z,9.39
2018-12-23T13:12:47.614Z,9.39
2018-12-23T13:17:52.572Z,9.41
2018-12-23T13:22:57.612Z,9.37
2018-12-23T13:28:02.599Z,9.36
2018-12-23T13:33:07.721Z,9.40
2018-12-23T13:38:12.855Z,9.41
2018-12-23T13:43:47.081Z,9.39
2018-12-23T13:49:22.675Z,9.36
2018-12-23T13:55:04.271Z,9.40
2018-12-23T14:00:40.736Z,9.38
2018-12-23T14:06:20.862Z,9.40
2018-12-23T14:11:33.288Z,9.36
2018-12-23T14:16:38.426Z,9.35
2018-12-23T14:21:43.549Z,9.34
2018-12-23T14:26:48.644Z,9.26
2018-12-23T14:31:53.689Z,9.31
2018-12-23T14:36:58.657Z,9.22
2018-12-23T14:42:03.639Z,9.18
2018-12-23T14:47:08.647Z,9.11
2018-12-23T14:52:13.649Z,9.03
2018-12-23T14:57:18.646Z,9.02
2018-12-23T15:02:23.703Z,8.96
2018-12-23T15:07:28.695Z,8.94
2018-12-23T15:12:33.867Z,8.95
2018-12-23T15:17:39.423Z,8.70
2018-12-23T15:22:44.374Z,8.74
2018-12-23T15:27:49.426Z,8.76
2018-12-23T15:32:54.425Z,8.71
2018-12-23T15:37:59.393Z,8.48
2018-12-23T15:43:04.428Z,8.47
2018-12-23T15:48:09.406Z,8.41
2018-12-23T15:53:14.411Z,8.46
2018-12-23T15:58:19.398Z,8.41
2018-12-23T16:03:24.393Z,8.39
2018-12-23T16:08:29.383Z,8.29
2018-12-23T16:13:34.405Z,8.34
2018-12-23T16:18:39.398Z,8.25
2018-12-23T16:23:44.366Z,8.23
2018-12-23T16:28:49.365Z,8.13
2018-12-23T16:33:54.463Z,8.16
2018-12-23T16:38:59.461Z,8.29
2018-12-23T16:44:04.520Z,8.12
2018-12-23T16:49:09.521Z,8.13
2018-12-23T16:54:14.528Z,8.31
2018-12-23T16:59:19.504Z,8.27
2018-12-23T17:04:26.198Z,8.27
2018-12-23T17:09:31.177Z,8.18
2018-12-23T17:14:36.189Z,8.14
2018-12-23T17:19:41.197Z,8.25
2018-12-23T17:24:46.786Z,8.19
2018-12-23T17:29:51.807Z,8.32
2018-12-23T17:34:56.795Z,8.19
2018-12-23T17:40:01.798Z,8.29
2018-12-23T17:45:07.021Z,8.18
2018-12-23T17:50:12.201Z,7.97
2018-12-23T17:55:17.185Z,8.03
2018-12-23T18:00:22.257Z,8.06
2018-12-23T18:05:27.285Z,8.02
2018-12-23T18:10:32.279Z,8.17
2018-12-23T18:15:37.310Z,8.21
2018-12-23T18:20:42.347Z,8.09
2018-12-23T18:25:47.429Z,7.94
2018-12-23T18:30:52.400Z,8.09
2018-12-23T18:35:57.375Z,8.06
2018-12-23T18:41:02.346Z,8.11
2018-12-23T18:46:07.380Z,8.18
2018-12-23T18:51:12.374Z,8.09
2018-12-23T18:56:17.548Z,7.96
2018-12-23T19:01:23.134Z,7.98
2018-12-23T19:06:28.207Z,7.98
2018-12-23T19:12:04.954Z,8.00
2018-12-23T19:17:23.111Z,7.95
2018-12-23T19:22:38.747Z,7.96
2018-12-23T19:28:17.277Z,7.79
2018-12-23T19:33:26.941Z,7.90
2018-12-23T19:38:57.796Z,8.01
2018-12-23T19:44:10.080Z,7.86
2018-12-23T19:49:51.871Z,7.65
2018-12-23T19:55:29.007Z,7.90
2018-12-23T20:00:50.132Z,7.75
2018-12-23T20:06:08.371Z,7.77
2018-12-23T20:11:23.700Z,7.63
2018-12-23T20:16:51.155Z,7.77
2018-12-23T20:22:18.804Z,7.69
2018-12-23T20:27:55.053Z,7.59
2018-12-23T20:33:25.601Z,7.49
2018-12-23T20:38:54.770Z,7.72
2018-12-23T20:44:09.990Z,7.74
2018-12-23T20:49:46.949Z,7.59
2018-12-23T20:55:17.738Z,7.48
2018-12-23T21:01:17.441Z,7.61
2018-12-23T21:06:41.635Z,7.61
2018-12-23T21:12:10.426Z,7.61
2018-12-23T21:17:45.618Z,7.56
2018-12-23T21:23:11.879Z,7.53
2018-12-23T21:28:33.184Z,7.46
2018-12-23T21:34:02.155Z,7.49
2018-12-23T21:39:26.063Z,7.35
2018-12-23T21:45:02.472Z,7.45
2018-12-23T21:50:49.636Z,7.51
2018-12-23T21:56:08.192Z,7.36
2018-12-23T22:01:32.256Z,7.39
2018-12-23T22:06:53.907Z,7.32
2018-12-23T22:12:21.544Z,7.43
2018-12-23T22:17:26.612Z,7.18
2018-12-23T22:22:31.678Z,7.39
2018-12-23T22:27:37.007Z,7.31
2018-12-23T22:32:42.008Z,7.16
2018-12-23T22:37:47.083Z,6.83
2018-12-23T22:42:52.040Z,6.80
2018-12-23T22:47:57.023Z,6.71
2018-12-23T22:53:02.110Z,6.42
2018-12-23T22:58:07.135Z,6.50
2018-12-23T23:03:12.149Z,6.42
2018-12-23T23:08:17.154Z,6.53
2018-12-23T23:13:22.125Z,6.49
2018-12-23T23:18:27.137Z,6.54
2018-12-23T23:23:32.092Z,6.59
2018-12-23T23:28:37.109Z,6.54
2018-12-23T23:33:42.102Z,6.62
2018-12-23T23:38:47.136Z,6.62
2018-12-23T23:43:52.127Z,6.61
2018-12-23T23:48:57.124Z,6.65
2018-12-23T23:54:02.240Z,6.58
2018-12-23T23:59:07.314Z,6.28
